Historyczne dane pomiarowe

Dodano dane terminowe – wersja testowa.

Dane z okresu 1951-2019

Wersja bazy: 1.34 [2019-03-16, lista zmian], aktualizacja planowana na 2019-04-15

Dane meteo z obszaru Polski uzyskane na podstawie danych udostępnionych przez Instytut Meteorologii i Gospodarki Wodnej – Państwowy Instytut Badawczy.

 

Wybierz Datę:    

       

TemperaturaWilgotnośćZachmurzenieWiatrCiśnienieWidzialnośćZjawiska
 Data    tng td wb rh cc ccl cl cm ch dir g1 g2 mslp ppp      
1994-06-17 00:00:00 9.0--- 7.2 8.189wxwxwx3wx--1011.5 970.3 2.2---wxw1
1994-06-17 01:00:00 8.8--- 7.2 8.090wxwxwx2wx--1011.5 970.3----wx
1994-06-17 02:00:00 8.7--- 7.1 7.990wxwxwx3wx--1011.8 970.6----wx
1994-06-17 03:00:00 8.6--- 7.0 7.890wxwxwx1wx--1012.1 970.9----wx
1994-06-17 04:00:00 8.0--- 6.2 7.188wxwxwx3wx--1012.6 971.3----wx
1994-06-17 05:00:00 8.1--- 5.9 7.086wxwxwx4wx--1013.2 971.8----wx
1994-06-17 06:00:00 8.1--- 5.2 6.782wxwxwx3wx--1013.4 972.0 0.1---wx
1994-06-17 07:00:00 8.9--- 4.8 6.975wxwxwxwx3wx--1013.7 972.4----wx
1994-06-17 08:00:00 9.7--- 4.3 7.169wxwxwxwx3wx--1013.9 972.7----wx
1994-06-17 09:00:00 11.1--- 4.3 7.863wxwxwx5wx--1014.0 973.0----wx
1994-06-17 10:00:00 11.1--- 3.1 7.358wxwxwx6wx--1014.2 973.2----wx
1994-06-17 11:00:00 12.4--- 3.2 8.054wxwxwx4wx--1014.1 973.3----wx
1994-06-17 12:00:00 12.7--- 3.1 8.152wxwxwx5wx--1014.1 973.4 0.0---wx
1994-06-17 13:00:00 13.1--- 2.6 8.149wxwxwx4wx--1014.2 973.5----wx
1994-06-17 14:00:00 13.1--- 2.1 7.947wxwxwx5wx--1014.6 973.9----wx
1994-06-17 15:00:00 13.5--- 3.2 8.550wxwxwx5wx--1014.8 974.1----wx
1994-06-17 16:00:00 14.1--- 2.9 8.747wxwxwx3wx--1014.8 974.2----wx
1994-06-17 17:00:00 13.1--- 3.2 8.351wxwxwx4wx--1015.4 974.7----wx
1994-06-17 18:00:00 12.5--- 3.4 8.154wxwxwxwx1wx--1015.7 974.9 0.0---wx
1994-06-17 19:00:00 11.1--- 3.8 7.661wxwxwxwx1wx--1016.1 975.1----wx
1994-06-17 20:00:00 7.4--- 4.0 5.879wxwxwx0wx--1017.2 975.6----wx
1994-06-17 21:00:00 6.1--- 4.4 5.389wxwxwx0wx--1017.8 976.0----wx
1994-06-17 22:00:00 6.0--- 4.5 5.390wxwxwx0wx--1018.0 976.1----wx
1994-06-17 23:00:00 3.9--- 3.0 3.594wxwxwx0wx--1018.2 976.0----wx

 

Źródłem pochodzenia danych jest Instytut Meteorologii i Gospodarki Wodnej – Państwowy Instytut Badawczy. Dane Instytutu Meteorologii i Gospodarki Wodnej – Państwowego Instytutu Badawczego zostały przetworzone.

Dane źródłowe można odnaleźć na stronie https://dane.imgw.pl